createdAt,value
2022-08-26T00:01:48.876Z,8.45
2022-08-26T00:05:34.804Z,7.95
2022-08-26T00:09:33.815Z,9.67
2022-08-26T00:13:37.806Z,9.55
2022-08-26T00:17:30.785Z,9.00
2022-08-26T00:21:16.863Z,9.57
2022-08-26T00:25:08.817Z,8.20
2022-08-26T00:28:47.915Z,10.32
2022-08-26T00:32:39.818Z,10.23
2022-08-26T00:36:30.007Z,10.15
2022-08-26T00:40:26.020Z,10.60
2022-08-26T00:44:05.587Z,10.10
2022-08-26T00:48:00.823Z,9.55
2022-08-26T00:51:47.817Z,11.25
2022-08-26T00:55:47.856Z,10.90
2022-08-26T00:59:27.859Z,10.50
2022-08-26T01:03:20.829Z,10.67
2022-08-26T01:07:08.871Z,11.70
2022-08-26T01:11:02.833Z,11.02
2022-08-26T01:14:55.862Z,11.57
2022-08-26T01:18:41.842Z,11.73
2022-08-26T01:22:45.881Z,12.27
2022-08-26T01:26:35.849Z,11.63
2022-08-26T01:30:28.839Z,12.25
2022-08-26T01:34:16.120Z,11.70
2022-08-26T01:38:09.829Z,11.82
2022-08-26T01:42:04.849Z,12.35
2022-08-26T01:45:56.954Z,11.98
2022-08-26T01:49:58.840Z,12.00
2022-08-26T01:53:50.876Z,13.07
2022-08-26T01:57:29.930Z,12.80
2022-08-26T02:01:21.866Z,11.85
2022-08-26T02:05:12.844Z,13.43
2022-08-26T02:09:09.974Z,12.73
2022-08-26T02:12:48.965Z,13.15
2022-08-26T02:16:44.876Z,14.65
2022-08-26T02:20:32.859Z,14.50
2022-08-26T02:24:30.849Z,15.13
2022-08-26T02:28:15.893Z,16.25
2022-08-26T02:32:14.899Z,17.27
2022-08-26T02:36:03.873Z,15.35
2022-08-26T02:40:02.910Z,15.50
2022-08-26T02:43:54.858Z,15.55
2022-08-26T02:47:39.870Z,16.60
2022-08-26T02:51:38.918Z,16.40
2022-08-26T02:55:31.866Z,16.50
2022-08-26T02:59:18.866Z,17.00
2022-08-26T03:03:05.178Z,18.13
2022-08-26T03:06:56.890Z,16.23
2022-08-26T03:10:35.168Z,16.00
2022-08-26T03:14:26.891Z,16.75
2022-08-26T03:18:18.888Z,17.50
2022-08-26T03:22:06.904Z,16.77
2022-08-26T03:25:59.912Z,17.48
2022-08-26T03:30:02.959Z,17.85
2022-08-26T03:33:59.505Z,18.27
2022-08-26T03:37:37.981Z,16.63
2022-08-26T03:41:29.903Z,18.80
2022-08-26T03:45:07.992Z,18.77
2022-08-26T03:48:59.885Z,18.85
2022-08-26T03:52:44.949Z,17.90
2022-08-26T03:56:40.075Z,16.45
2022-08-26T04:00:28.931Z,17.63
2022-08-26T04:04:22.847Z,16.90
2022-08-26T04:08:10.046Z,17.67
2022-08-26T04:11:55.612Z,18.27
2022-08-26T04:15:49.018Z,18.05
2022-08-26T04:19:34.910Z,17.63
2022-08-26T04:23:20.997Z,18.10
2022-08-26T04:27:05.922Z,16.75
2022-08-26T04:30:59.982Z,17.58
2022-08-26T04:34:38.434Z,18.63
2022-08-26T04:38:30.950Z,17.33
2022-08-26T04:42:09.319Z,18.08
2022-08-26T04:46:00.952Z,15.40
2022-08-26T04:49:45.954Z,17.77
2022-08-26T04:53:37.951Z,16.23
2022-08-26T04:57:16.293Z,16.40
2022-08-26T05:01:08.958Z,16.83
2022-08-26T05:04:47.349Z,16.40
2022-08-26T05:08:43.946Z,16.87
2022-08-26T05:12:29.941Z,16.73
2022-08-26T05:16:19.567Z,16.92
2022-08-26T05:20:12.947Z,15.13
2022-08-26T05:24:01.981Z,16.13
2022-08-26T05:27:54.023Z,16.58
2022-08-26T05:31:43.965Z,15.25
2022-08-26T05:35:46.136Z,16.38
2022-08-26T05:39:41.194Z,15.90
2022-08-26T05:43:26.974Z,15.10
2022-08-26T05:47:25.970Z,14.68
2022-08-26T05:51:26.072Z,14.43
2022-08-26T05:55:17.982Z,14.27
2022-08-26T05:59:04.984Z,12.85
2022-08-26T06:03:04.083Z,12.77
2022-08-26T06:06:49.348Z,12.03
2022-08-26T06:10:40.970Z,10.67
2022-08-26T06:14:27.984Z,12.18
2022-08-26T06:18:14.524Z,10.95
2022-08-26T06:22:00.988Z,11.67
2022-08-26T06:25:53.029Z,10.97
2022-08-26T06:29:33.607Z,11.38
2022-08-26T06:33:18.004Z,11.23
2022-08-26T06:37:03.408Z,9.90
2022-08-26T06:40:59.365Z,9.53
2022-08-26T06:44:51.004Z,9.40
2022-08-26T06:48:36.013Z,10.55
2022-08-26T06:52:28.039Z,9.77
2022-08-26T06:56:17.020Z,9.43
2022-08-26T07:00:09.015Z,9.23
2022-08-26T07:03:48.826Z,9.15
2022-08-26T07:07:41.039Z,9.40
2022-08-26T07:11:42.017Z,8.17
2022-08-26T07:15:34.113Z,8.63
2022-08-26T07:19:29.982Z,9.27
2022-08-26T07:23:18.199Z,8.03
2022-08-26T07:27:21.062Z,8.60
2022-08-26T07:31:03.560Z,7.72
2022-08-26T07:35:02.036Z,7.80
2022-08-26T07:38:48.049Z,7.27
2022-08-26T07:42:40.048Z,7.63
2022-08-26T07:46:30.183Z,8.00
2022-08-26T07:50:16.315Z,7.20
2022-08-26T07:54:01.060Z,7.07
2022-08-26T07:57:53.063Z,7.13
2022-08-26T08:01:38.137Z,7.32
2022-08-26T08:05:34.103Z,7.68
2022-08-26T08:09:26.030Z,6.17
2022-08-26T08:13:20.065Z,7.22
2022-08-26T08:17:01.291Z,6.10
2022-08-26T08:20:59.406Z,6.45
2022-08-26T08:24:53.105Z,6.63
2022-08-26T08:28:38.201Z,6.75
2022-08-26T08:32:23.078Z,6.78
2022-08-26T08:36:21.090Z,5.80
2022-08-26T08:39:59.894Z,7.68
2022-08-26T08:43:55.090Z,7.35
2022-08-26T08:47:49.088Z,7.73
2022-08-26T08:51:56.085Z,6.93
2022-08-26T08:55:58.098Z,7.20
2022-08-26T09:00:00.098Z,7.15
2022-08-26T09:04:02.090Z,6.20
2022-08-26T09:07:59.083Z,6.60
2022-08-26T09:11:37.477Z,6.47
2022-08-26T09:15:34.146Z,6.80
2022-08-26T09:19:32.090Z,6.20
2022-08-26T09:23:18.325Z,6.20
2022-08-26T09:27:05.104Z,6.07
2022-08-26T09:31:00.184Z,6.68
2022-08-26T09:35:06.303Z,5.90
2022-08-26T09:38:59.156Z,6.35
2022-08-26T09:42:44.118Z,6.17
2022-08-26T09:46:41.095Z,5.85
2022-08-26T09:50:37.128Z,6.45
2022-08-26T09:54:33.434Z,6.60
2022-08-26T09:58:37.820Z,5.72
2022-08-26T10:02:47.940Z,5.88
2022-08-26T10:06:28.711Z,5.90
2022-08-26T10:10:26.142Z,5.20
2022-08-26T10:14:26.174Z,5.10
2022-08-26T10:18:27.918Z,5.63
2022-08-26T10:22:34.393Z,5.57
2022-08-26T10:26:36.133Z,5.18
2022-08-26T10:30:25.147Z,5.07
2022-08-26T10:34:17.143Z,3.63
2022-08-26T10:38:00.556Z,5.93
2022-08-26T10:41:57.151Z,4.45
2022-08-26T10:45:51.177Z,5.67
2022-08-26T10:49:36.201Z,4.40
2022-08-26T10:54:02.156Z,4.75
2022-08-26T10:58:04.705Z,4.60
2022-08-26T11:02:15.177Z,5.63
2022-08-26T11:06:37.370Z,4.63
2022-08-26T11:10:34.501Z,4.63
2022-08-26T11:14:53.115Z,4.17
2022-08-26T11:18:51.335Z,4.75
2022-08-26T11:22:47.935Z,4.68
2022-08-26T11:26:55.647Z,5.60
2022-08-26T11:30:57.721Z,5.45
2022-08-26T11:35:03.200Z,5.60
2022-08-26T11:38:48.319Z,4.85
2022-08-26T11:43:03.171Z,4.30
2022-08-26T11:46:49.203Z,4.93
2022-08-26T11:50:41.192Z,4.43
2022-08-26T11:54:35.493Z,4.10
2022-08-26T11:58:22.341Z,4.47
2022-08-26T12:02:17.724Z,4.82
2022-08-26T12:06:16.261Z,5.43
2022-08-26T12:10:06.900Z,4.88
2022-08-26T12:14:13.218Z,4.22
2022-08-26T12:18:07.287Z,4.10
2022-08-26T12:21:49.003Z,5.13
2022-08-26T12:25:41.254Z,4.78
2022-08-26T12:29:34.211Z,4.45
2022-08-26T12:33:28.237Z,4.50
2022-08-26T12:37:11.818Z,4.55
2022-08-26T12:41:03.255Z,4.35
2022-08-26T12:44:53.676Z,5.03
2022-08-26T12:49:07.222Z,4.93
2022-08-26T12:53:08.253Z,5.90
2022-08-26T12:56:53.247Z,5.43
2022-08-26T13:00:54.317Z,5.47
2022-08-26T13:05:00.048Z,4.40
2022-08-26T13:08:55.248Z,4.82
2022-08-26T13:12:47.272Z,4.90
2022-08-26T13:16:32.772Z,5.70
2022-08-26T13:20:24.266Z,5.10
2022-08-26T13:24:14.258Z,5.20
2022-08-26T13:28:00.338Z,5.13
2022-08-26T13:31:47.338Z,6.50
2022-08-26T13:35:39.266Z,4.85
2022-08-26T13:39:25.263Z,5.40
2022-08-26T13:43:10.394Z,4.88
2022-08-26T13:46:55.261Z,4.97
2022-08-26T13:50:48.295Z,4.90
2022-08-26T13:54:26.550Z,4.72
2022-08-26T13:58:18.278Z,4.85
2022-08-26T14:02:05.308Z,6.43
2022-08-26T14:05:50.378Z,5.25
2022-08-26T14:09:38.333Z,5.82
2022-08-26T14:13:30.287Z,5.53
2022-08-26T14:17:08.641Z,5.17
2022-08-26T14:21:03.312Z,5.20
2022-08-26T14:24:48.289Z,5.13
2022-08-26T14:28:33.358Z,4.73
2022-08-26T14:32:31.285Z,4.93
2022-08-26T14:36:34.294Z,4.13
2022-08-26T14:40:29.362Z,4.67
2022-08-26T14:44:16.358Z,4.03
2022-08-26T14:48:08.443Z,4.72
2022-08-26T14:51:54.320Z,4.90
2022-08-26T14:55:55.319Z,5.40
2022-08-26T14:59:50.202Z,4.45
2022-08-26T15:03:35.329Z,4.45
2022-08-26T15:07:27.333Z,4.80
2022-08-26T15:11:05.390Z,4.43
2022-08-26T15:14:57.363Z,3.83
2022-08-26T15:18:42.321Z,3.93
2022-08-26T15:22:34.440Z,4.00
2022-08-26T15:26:24.339Z,4.10
2022-08-26T15:30:18.338Z,3.72
2022-08-26T15:34:17.409Z,4.03
2022-08-26T15:37:57.003Z,4.10
2022-08-26T15:41:48.372Z,4.28
2022-08-26T15:45:26.829Z,3.83
2022-08-26T15:49:18.828Z,3.40
2022-08-26T15:53:03.349Z,3.40
2022-08-26T15:56:57.368Z,3.77
2022-08-26T16:00:37.236Z,3.13
2022-08-26T16:04:29.347Z,3.75
2022-08-26T16:08:14.393Z,3.80
2022-08-26T16:12:01.438Z,4.77
2022-08-26T16:15:46.463Z,3.40
2022-08-26T16:19:38.398Z,3.28
2022-08-26T16:23:17.271Z,3.90
2022-08-26T16:27:09.392Z,3.40
2022-08-26T16:31:01.440Z,4.15
2022-08-26T16:34:39.438Z,3.97
2022-08-26T16:38:48.395Z,3.67
2022-08-26T16:42:33.364Z,3.80
2022-08-26T16:46:25.556Z,3.22
2022-08-26T16:50:11.429Z,4.10
2022-08-26T16:54:11.380Z,3.83
2022-08-26T16:58:04.388Z,3.57
2022-08-26T17:01:42.515Z,2.97
2022-08-26T17:05:37.402Z,3.50
2022-08-26T17:09:25.430Z,3.43
2022-08-26T17:13:35.307Z,2.77
2022-08-26T17:17:34.408Z,2.70
2022-08-26T17:21:33.122Z,2.65
2022-08-26T17:25:19.443Z,2.30
2022-08-26T17:29:13.389Z,2.53
2022-08-26T17:32:52.885Z,2.65
2022-08-26T17:36:44.450Z,3.03
2022-08-26T17:40:33.506Z,2.55
2022-08-26T17:44:25.424Z,2.83
2022-08-26T17:48:18.420Z,2.87
2022-08-26T17:52:00.213Z,3.05
2022-08-26T17:55:54.422Z,2.92
2022-08-26T17:59:41.012Z,2.53
2022-08-26T18:03:25.492Z,2.73
2022-08-26T18:07:10.407Z,2.75
2022-08-26T18:11:02.445Z,3.13
2022-08-26T18:14:40.715Z,2.47
2022-08-26T18:18:32.456Z,2.53
2022-08-26T18:22:10.760Z,3.30
2022-08-26T18:26:08.444Z,3.67
2022-08-26T18:29:57.454Z,3.10
2022-08-26T18:33:43.097Z,5.93
2022-08-26T18:37:31.024Z,4.05
2022-08-26T18:41:23.492Z,5.70
2022-08-26T18:45:02.685Z,9.10
2022-08-26T18:48:54.458Z,6.07
2022-08-26T18:52:39.447Z,4.45
2022-08-26T18:56:25.537Z,4.15
2022-08-26T19:00:15.442Z,4.10
2022-08-26T19:04:08.490Z,4.53
2022-08-26T19:08:06.478Z,3.92
2022-08-26T19:11:52.518Z,3.45
2022-08-26T19:15:46.464Z,3.38
2022-08-26T19:19:26.788Z,2.70
2022-08-26T19:23:31.308Z,3.50
2022-08-26T19:27:17.489Z,2.95
2022-08-26T19:31:09.597Z,2.60
2022-08-26T19:34:57.538Z,3.83
2022-08-26T19:38:57.486Z,2.70
2022-08-26T19:42:49.487Z,3.00
2022-08-26T19:46:36.550Z,4.63
2022-08-26T19:50:39.474Z,3.00
2022-08-26T19:54:38.513Z,2.85
2022-08-26T19:58:30.513Z,2.63
2022-08-26T20:02:18.602Z,2.67
2022-08-26T20:06:12.505Z,2.53
2022-08-26T20:09:51.620Z,2.58
2022-08-26T20:13:43.495Z,3.00
2022-08-26T20:17:28.506Z,3.00
2022-08-26T20:21:32.509Z,2.50
2022-08-26T20:25:24.500Z,3.95
2022-08-26T20:29:10.489Z,3.75
2022-08-26T20:33:02.539Z,3.40
2022-08-26T20:36:40.554Z,3.53
2022-08-26T20:40:32.573Z,3.10
2022-08-26T20:44:11.928Z,3.15
2022-08-26T20:48:06.301Z,3.45
2022-08-26T20:51:51.521Z,3.72
2022-08-26T20:55:50.537Z,3.37
2022-08-26T20:59:42.553Z,3.33
2022-08-26T21:03:28.570Z,3.97
2022-08-26T21:07:20.532Z,3.42
2022-08-26T21:11:07.549Z,3.45
2022-08-26T21:15:06.528Z,3.73
2022-08-26T21:18:58.844Z,3.58
2022-08-26T21:22:52.644Z,3.67
2022-08-26T21:26:31.034Z,3.80
2022-08-26T21:30:23.539Z,3.20
2022-08-26T21:34:08.557Z,3.20
2022-08-26T21:38:00.608Z,4.22
2022-08-26T21:41:41.632Z,3.40
2022-08-26T21:45:33.609Z,3.50
2022-08-26T21:49:20.560Z,3.53
2022-08-26T21:53:05.687Z,3.83
2022-08-26T21:56:53.584Z,3.80
2022-08-26T22:00:45.630Z,3.22
2022-08-26T22:04:24.253Z,3.75
2022-08-26T22:08:15.547Z,3.92
2022-08-26T22:12:07.551Z,4.03
2022-08-26T22:15:45.721Z,3.83
2022-08-26T22:19:45.945Z,3.65
2022-08-26T22:23:38.580Z,3.85
2022-08-26T22:27:23.577Z,4.20
2022-08-26T22:31:12.342Z,3.57
2022-08-26T22:34:57.702Z,4.07
2022-08-26T22:38:51.570Z,3.97
2022-08-26T22:42:31.231Z,3.58
2022-08-26T22:46:22.580Z,3.75
2022-08-26T22:50:07.599Z,4.60
2022-08-26T22:53:52.663Z,3.90
2022-08-26T22:57:37.593Z,4.13
2022-08-26T23:01:29.662Z,4.10
2022-08-26T23:05:15.619Z,4.22
2022-08-26T23:09:00.662Z,3.93
2022-08-26T23:12:52.597Z,4.32
2022-08-26T23:16:41.673Z,4.10
2022-08-26T23:20:35.638Z,4.20
2022-08-26T23:24:14.819Z,4.03
2022-08-26T23:28:08.758Z,3.77
2022-08-26T23:31:55.681Z,4.07
2022-08-26T23:35:54.625Z,3.95
2022-08-26T23:39:46.687Z,4.45
2022-08-26T23:43:39.632Z,4.50
2022-08-26T23:47:39.637Z,3.90
2022-08-26T23:51:50.661Z,4.28
2022-08-26T23:55:35.635Z,4.28
2022-08-26T23:59:27.591Z,4.50
